Time;durP1;ratioP1;P1;durP2;ratioP2;P2;SDS_P1;SDS_P2;PMS_P1;PMS_P2;Temp;Humidity;BMP_temperature;BMP_pressure;BME280_temperature;BME280_humidity;BME280_pressure;Samples;Min_cycle;Max_cycle;Signal;HPM_P1;HPM_P2
2023/07/20 00:01:07;;;;;;;3.07;1.60;;;;;;;24.41;57.43;100574.72;5033890;28;20414;-78
2023/07/20 00:03:33;;;;;;;6.97;2.20;;;;;;;24.40;57.42;100581.22;5033967;28;21051;-78
2023/07/20 00:05:58;;;;;;;5.45;1.77;;;;;;;24.36;57.56;100577.41;5033749;28;20409;-79
2023/07/20 00:08:24;;;;;;;6.20;1.67;;;;;;;24.26;57.80;100583.59;5032718;28;20386;-77
2023/07/20 00:10:49;;;;;;;4.13;1.47;;;;;;;24.10;58.33;100576.50;5032228;28;20400;-78
2023/07/20 00:13:19;;;;;;;3.58;1.60;;;;;;;24.01;58.39;100566.16;5032176;28;20413;-77
2023/07/20 00:15:44;;;;;;;5.13;1.53;;;;;;;23.88;58.66;100566.63;5032078;28;20394;-77
2023/07/20 00:18:10;;;;;;;4.32;1.60;;;;;;;23.92;58.67;100561.50;5031355;28;20486;-77
2023/07/20 00:20:35;;;;;;;4.83;1.70;;;;;;;23.94;58.80;100568.28;5014326;28;20390;-77
2023/07/20 00:23:01;;;;;;;5.18;1.45;;;;;;;23.87;58.74;100567.69;5031694;28;20390;-77
2023/07/20 00:25:26;;;;;;;4.13;1.60;;;;;;;23.88;58.46;100563.09;5031245;28;20457;-77
2023/07/20 00:27:52;;;;;;;3.55;1.67;;;;;;;23.79;58.55;100558.16;5031017;28;20405;-76
2023/07/20 00:30:18;;;;;;;3.85;1.48;;;;;;;23.70;59.00;100548.06;5013638;28;20488;-76
2023/07/20 00:32:43;;;;;;;5.30;1.45;;;;;;;23.64;59.25;100539.94;5030453;28;20410;-75
2023/07/20 00:35:10;;;;;;;5.67;1.40;;;;;;;23.56;59.50;100531.50;5031037;28;20436;-77
2023/07/20 00:37:36;;;;;;;4.30;1.50;;;;;;;23.69;59.14;100532.94;5014028;28;20413;-77
2023/07/20 00:40:04;;;;;;;5.17;1.60;;;;;;;23.64;59.46;100515.59;5030823;28;20390;-77
2023/07/20 00:42:30;;;;;;;4.70;1.90;;;;;;;23.78;58.82;100515.91;5029895;28;20394;-76
2023/07/20 00:44:56;;;;;;;6.80;1.75;;;;;;;23.81;58.62;100520.03;5046418;28;20390;-77
2023/07/20 00:47:22;;;;;;;3.53;1.30;;;;;;;23.81;58.40;100520.84;5030416;28;20374;-77
2023/07/20 00:49:47;;;;;;;4.90;1.50;;;;;;;23.78;58.73;100521.31;5030762;28;20405;-77
2023/07/20 00:52:14;;;;;;;4.50;1.48;;;;;;;23.83;58.67;100512.47;5030768;28;20382;-77
2023/07/20 00:54:41;;;;;;;4.23;1.50;;;;;;;23.80;58.25;100518.41;5030824;28;20465;-77
2023/07/20 00:57:07;;;;;;;3.67;1.25;;;;;;;23.82;58.35;100510.81;5030588;28;20414;-77
2023/07/20 00:59:34;;;;;;;4.47;1.50;;;;;;;23.90;57.99;100509.53;5046201;28;20378;-77
2023/07/20 01:02:00;;;;;;;4.57;1.50;;;;;;;23.80;58.46;100507.56;5030339;28;20704;-77
2023/07/20 01:04:27;;;;;;;2.70;1.40;;;;;;;23.61;58.97;100515.31;5030577;28;20806;-77
2023/07/20 01:07:10;;;;;;;5.00;1.50;;;;;;;23.54;59.28;100518.22;5030893;28;20462;-77
2023/07/20 01:09:48;;;;;;;3.63;1.70;;;;;;;23.57;59.01;100509.59;5030616;28;20418;-77
2023/07/20 01:12:22;;;;;;;7.65;1.98;;;;;;;23.59;58.76;100514.75;5032334;28;20406;-77
2023/07/20 01:14:49;;;;;;;3.97;1.40;;;;;;;23.64;58.42;100510.19;5030156;28;20402;-77
2023/07/20 01:17:14;;;;;;;7.07;1.85;;;;;;;23.72;58.23;100521.59;5028342;28;20422;-76
2023/07/20 01:19:39;;;;;;;5.13;1.47;;;;;;;23.65;58.41;100527.22;5022079;28;20471;-76
2023/07/20 01:22:35;;;;;;;6.47;1.75;;;;;;;23.56;58.47;100523.38;5020611;28;20412;-77
2023/07/20 01:25:27;;;;;;;3.67;1.60;;;;;;;23.42;59.10;100528.44;5020664;28;20413;-77
2023/07/20 01:28:31;;;;;;;6.07;1.60;;;;;;;23.32;59.09;100531.88;4983252;28;20474;-76
2023/07/20 01:31:26;;;;;;;5.05;1.65;;;;;;;23.37;58.63;100539.19;5012210;28;20405;-77
2023/07/20 01:33:57;;;;;;;7.15;1.70;;;;;;;23.29;58.83;100529.69;5031895;28;20452;-77
2023/07/20 01:36:25;;;;;;;3.07;1.50;;;;;;;23.28;59.10;100536.16;5028333;28;20387;-77
2023/07/20 01:38:52;;;;;;;6.57;1.83;;;;;;;23.23;59.38;100534.25;5028164;28;20390;-76
2023/07/20 01:41:18;;;;;;;6.60;2.20;;;;;;;23.25;59.24;100531.28;5027600;28;20382;-75
2023/07/20 01:43:44;;;;;;;4.00;1.40;;;;;;;23.14;59.46;100527.69;5028860;28;20389;-75
2023/07/20 01:46:10;;;;;;;5.75;2.13;;;;;;;23.09;59.60;100520.34;5032017;28;20468;-77
2023/07/20 01:48:35;;;;;;;6.43;2.13;;;;;;;22.98;59.94;100528.63;5037446;28;20378;-78
2023/07/20 01:51:00;;;;;;;4.13;1.67;;;;;;;22.92;60.25;100538.53;5040352;28;20409;-78
2023/07/20 01:53:26;;;;;;;4.38;1.70;;;;;;;22.90;60.01;100528.00;5036511;28;20763;-77
2023/07/20 01:55:55;;;;;;;5.13;1.87;;;;;;;22.82;60.58;100525.75;5035854;28;20450;-78
2023/07/20 01:58:20;;;;;;;5.63;1.83;;;;;;;22.72;60.84;100539.16;5017578;28;20414;-77
2023/07/20 02:00:46;;;;;;;4.83;1.60;;;;;;;22.46;61.51;100538.91;5034890;28;20412;-77
2023/07/20 02:03:12;;;;;;;6.13;1.57;;;;;;;22.30;62.07;100529.81;5035136;28;20384;-78
2023/07/20 02:05:37;;;;;;;6.22;1.60;;;;;;;22.27;62.40;100533.03;5034230;28;20551;-77
2023/07/20 02:08:03;;;;;;;6.55;1.50;;;;;;;22.14;62.68;100527.97;5016758;28;20375;-78
2023/07/20 02:10:29;;;;;;;6.37;1.70;;;;;;;22.22;62.60;100532.09;5033863;28;20754;-77
2023/07/20 02:12:54;;;;;;;6.38;1.80;;;;;;;22.26;62.11;100528.69;5033837;28;20449;-76
2023/07/20 02:15:20;;;;;;;7.80;1.87;;;;;;;22.30;62.19;100537.09;5034014;28;20457;-76
2023/07/20 02:17:46;;;;;;;5.38;1.52;;;;;;;22.27;62.05;100534.91;5016796;28;20403;-77
2023/07/20 02:20:12;;;;;;;7.68;1.85;;;;;;;22.31;61.95;100519.84;5015782;28;20883;-77
2023/07/20 02:22:38;;;;;;;7.20;1.70;;;;;;;22.40;61.35;100523.72;5015693;28;20469;-77
2023/07/20 02:25:05;;;;;;;6.72;2.15;;;;;;;22.46;61.42;100527.28;5032026;28;20509;-77
2023/07/20 02:27:31;;;;;;;5.72;1.60;;;;;;;22.40;61.23;100534.53;5031707;28;20870;-78
2023/07/20 02:29:56;;;;;;;4.40;1.63;;;;;;;22.30;61.69;100527.09;5013601;28;21851;-77
2023/07/20 02:32:22;;;;;;;5.27;1.77;;;;;;;22.29;61.72;100538.16;5031770;28;20394;-76
2023/07/20 02:34:47;;;;;;;5.50;1.77;;;;;;;22.24;61.76;100536.19;5031684;28;20378;-76
2023/07/20 02:37:13;;;;;;;5.10;1.70;;;;;;;22.29;61.62;100546.25;5031907;28;20410;-76
2023/07/20 02:39:39;;;;;;;4.80;1.60;;;;;;;22.22;61.86;100543.75;5032857;28;20746;-76
2023/07/20 02:42:05;;;;;;;5.10;1.80;;;;;;;22.23;61.93;100547.25;5032664;28;20727;-76
2023/07/20 02:44:31;;;;;;;6.90;1.57;;;;;;;22.14;62.06;100536.06;5029694;28;20453;-75
2023/07/20 02:46:56;;;;;;;6.95;1.80;;;;;;;22.13;61.99;100532.56;5032922;28;20830;-76
2023/07/20 02:49:22;;;;;;;7.13;1.97;;;;;;;22.18;61.71;100517.47;5032364;28;20386;-75
2023/07/20 02:51:47;;;;;;;3.63;1.57;;;;;;;22.36;61.27;100529.88;5014349;28;20855;-76
2023/07/20 02:54:12;;;;;;;5.47;1.60;;;;;;;22.43;60.85;100528.59;5032397;28;20382;-76
2023/07/20 02:56:38;;;;;;;5.87;1.80;;;;;;;22.43;60.77;100535.91;5014848;28;20421;-75
2023/07/20 02:59:04;;;;;;;7.17;2.10;;;;;;;22.44;60.77;100541.06;5031558;28;20401;-75
2023/07/20 03:01:29;;;;;;;4.70;1.50;;;;;;;22.35;61.01;100539.06;5031912;28;20394;-75
2023/07/20 03:03:58;;;;;;;5.93;1.73;;;;;;;22.21;61.27;100547.50;5040464;28;20390;-75
2023/07/20 03:06:23;;;;;;;5.40;1.55;;;;;;;22.24;61.49;100557.00;5040336;28;20377;-75
2023/07/20 03:08:51;;;;;;;6.53;1.70;;;;;;;22.22;61.54;100554.53;5043331;28;20377;-75
2023/07/20 03:11:18;;;;;;;5.72;1.83;;;;;;;22.27;61.38;100548.41;5039913;28;20944;-77
2023/07/20 03:13:44;;;;;;;4.63;1.50;;;;;;;22.03;61.78;100543.22;5040459;28;20481;-74
2023/07/20 03:16:12;;;;;;;3.28;1.70;;;;;;;21.83;62.68;100535.69;5043491;28;20401;-76
2023/07/20 03:18:41;;;;;;;6.05;1.75;;;;;;;21.77;62.75;100537.50;5040956;28;20402;-75
2023/07/20 03:21:11;;;;;;;6.75;1.70;;;;;;;21.65;63.23;100541.38;5041492;28;20493;-76
2023/07/20 03:23:37;;;;;;;3.25;1.60;;;;;;;21.68;62.89;100530.06;5045215;28;20779;-76
2023/07/20 03:26:03;;;;;;;7.63;1.80;;;;;;;21.86;62.71;100545.16;5040511;28;20909;-76
2023/07/20 03:28:28;;;;;;;5.80;1.60;;;;;;;21.87;62.57;100544.09;5042448;28;20530;-76
2023/07/20 03:30:55;;;;;;;5.28;2.03;;;;;;;21.92;62.39;100547.66;5041009;28;20492;-76
2023/07/20 03:33:22;;;;;;;6.00;1.90;;;;;;;22.02;62.19;100551.56;5043400;28;20377;-75
2023/07/20 03:35:47;;;;;;;3.72;1.70;;;;;;;22.19;61.93;100560.44;5040115;28;20378;-75
2023/07/20 03:38:13;;;;;;;7.40;1.90;;;;;;;22.34;61.44;100549.03;5041033;28;20955;-75
2023/07/20 03:40:38;;;;;;;7.10;1.92;;;;;;;22.45;61.10;100561.56;5043520;28;20416;-75
2023/07/20 03:43:04;;;;;;;10.43;1.90;;;;;;;22.49;60.92;100554.63;5042101;28;20391;-76
2023/07/20 03:45:29;;;;;;;6.07;1.83;;;;;;;22.47;61.14;100543.25;5021903;28;20416;-76
2023/07/20 03:47:54;;;;;;;8.65;2.03;;;;;;;22.69;60.63;100537.00;5040864;28;20544;-76
2023/07/20 03:50:20;;;;;;;5.07;1.70;;;;;;;22.80;60.32;100543.31;5040533;28;20377;-77
2023/07/20 03:52:45;;;;;;;6.10;1.87;;;;;;;22.79;60.20;100544.38;5041860;28;20384;-76
2023/07/20 03:55:11;;;;;;;6.85;2.35;;;;;;;22.88;59.71;100551.75;5039779;28;20491;-76
2023/07/20 03:57:36;;;;;;;5.60;1.90;;;;;;;22.95;59.59;100543.44;5039940;28;20414;-78
2023/07/20 04:00:06;;;;;;;6.23;2.13;;;;;;;23.02;59.47;100552.16;5039699;28;20861;-77
2023/07/20 04:02:32;;;;;;;6.50;2.45;;;;;;;23.02;59.45;100543.25;5042726;28;20404;-74
2023/07/20 04:04:57;;;;;;;4.47;1.93;;;;;;;23.06;59.39;100550.59;5050087;28;20489;-75
2023/07/20 04:07:23;;;;;;;6.47;2.10;;;;;;;23.23;59.29;100545.06;5050057;28;20527;-76
2023/07/20 04:09:48;;;;;;;8.87;2.30;;;;;;;23.26;58.86;100544.56;5049754;28;20483;-77
2023/07/20 04:12:14;;;;;;;6.70;2.10;;;;;;;23.46;58.72;100543.88;5030562;28;20734;-76
2023/07/20 04:14:39;;;;;;;12.27;7.38;;;;;;;23.73;57.86;100542.13;5049497;28;20480;-75
2023/07/20 04:17:05;;;;;;;3.67;1.80;;;;;;;23.90;57.40;100537.41;5049518;28;20409;-75
2023/07/20 04:19:30;;;;;;;7.47;2.00;;;;;;;24.09;57.01;100547.78;5048017;28;20415;-76
2023/07/20 04:21:56;;;;;;;4.40;1.60;;;;;;;24.15;56.62;100544.03;5044277;28;20438;-76
2023/07/20 04:24:21;;;;;;;5.50;1.77;;;;;;;24.31;56.29;100545.69;5049138;28;20384;-75
2023/07/20 04:26:47;;;;;;;8.47;1.87;;;;;;;24.30;55.95;100533.22;5049710;28;20380;-76
2023/07/20 04:29:12;;;;;;;5.22;1.77;;;;;;;24.47;55.99;100535.72;5048732;28;20388;-75
2023/07/20 04:31:38;;;;;;;5.50;1.80;;;;;;;24.42;55.61;100535.72;5044270;28;20380;-76
2023/07/20 04:34:03;;;;;;;5.60;2.07;;;;;;;24.55;55.39;100535.22;5049250;28;20392;-76
2023/07/20 04:36:29;;;;;;;6.77;2.20;;;;;;;24.67;55.39;100534.16;5049095;28;20395;-77
2023/07/20 04:38:54;;;;;;;7.65;2.70;;;;;;;24.80;54.72;100536.34;5049289;28;20388;-76
2023/07/20 04:41:20;;;;;;;7.97;2.20;;;;;;;24.76;54.39;100533.38;5049985;28;20380;-77
2023/07/20 04:43:46;;;;;;;6.80;2.03;;;;;;;24.74;54.49;100540.13;5029575;28;20403;-76
2023/07/20 04:46:11;;;;;;;7.60;2.30;;;;;;;24.93;54.60;100543.94;5044321;28;20388;-76
2023/07/20 04:48:37;;;;;;;7.97;1.97;;;;;;;25.38;53.65;100547.75;5021298;28;20438;-77
2023/07/20 04:51:03;;;;;;;8.73;2.10;;;;;;;25.49;52.95;100550.47;5028778;28;20381;-76
2023/07/20 04:53:28;;;;;;;6.07;1.90;;;;;;;25.78;52.68;100560.72;5049009;28;20376;-76
2023/07/20 04:55:54;;;;;;;6.68;2.30;;;;;;;25.86;52.06;100558.28;5032060;28;20873;-75
2023/07/20 04:58:21;;;;;;;3.77;1.90;;;;;;;25.75;52.26;100559.41;5047733;28;20577;-75
2023/07/20 05:00:48;;;;;;;6.35;2.33;;;;;;;26.01;51.69;100553.91;5049396;28;20396;-76
2023/07/20 05:03:14;;;;;;;6.32;2.40;;;;;;;26.13;51.28;100554.41;5046357;28;20394;-76
2023/07/20 05:05:39;;;;;;;5.87;2.50;;;;;;;26.24;51.10;100549.75;5036859;28;20733;-76
2023/07/20 05:08:05;;;;;;;5.85;3.08;;;;;;;26.32;50.63;100551.88;5043163;28;20823;-74
2023/07/20 05:10:32;;;;;;;6.47;2.10;;;;;;;26.43;50.62;100552.63;5044120;28;20385;-76
2023/07/20 05:12:58;;;;;;;4.07;2.15;;;;;;;26.56;50.38;100549.31;5035569;28;20459;-76
2023/07/20 05:15:23;;;;;;;4.43;2.20;;;;;;;26.72;49.84;100560.09;5050539;28;20464;-76
2023/07/20 05:17:49;;;;;;;6.45;2.20;;;;;;;26.89;49.79;100561.34;5044836;28;20412;-74
2023/07/20 05:20:14;;;;;;;4.53;2.25;;;;;;;27.00;49.55;100561.25;5044570;28;20388;-75
2023/07/20 05:22:40;;;;;;;4.77;1.80;;;;;;;26.97;49.09;100561.81;5052482;28;20932;-74
2023/07/20 05:25:11;;;;;;;5.07;2.28;;;;;;;26.99;48.70;100565.06;5052677;28;20399;-75
2023/07/20 05:27:37;;;;;;;4.85;1.80;;;;;;;27.05;48.78;100570.19;5049694;28;20384;-77
2023/07/20 05:30:04;;;;;;;6.03;2.10;;;;;;;27.03;48.98;100568.88;5052790;28;20457;-76
2023/07/20 05:32:29;;;;;;;6.75;2.35;;;;;;;27.14;48.91;100559.53;5032628;28;20390;-76
2023/07/20 05:34:55;;;;;;;6.93;2.25;;;;;;;27.12;49.00;100567.16;5038529;28;20386;-77
2023/07/20 05:37:22;;;;;;;4.82;2.10;;;;;;;27.24;49.08;100559.44;5034376;28;20815;-78
2023/07/20 05:39:48;;;;;;;5.20;2.25;;;;;;;27.27;49.13;100571.69;5018171;28;20397;-77
2023/07/20 05:42:13;;;;;;;5.63;2.33;;;;;;;27.38;48.95;100584.09;5035972;28;20382;-79
2023/07/20 05:44:40;;;;;;;7.07;2.40;;;;;;;27.51;49.02;100601.66;5008411;28;20396;-76
2023/07/20 05:47:05;;;;;;;6.45;2.40;;;;;;;27.60;48.58;100613.59;5016000;28;20391;-76
2023/07/20 05:49:31;;;;;;;7.22;2.20;;;;;;;27.63;48.65;100610.28;5014250;28;20396;-76
2023/07/20 05:51:57;;;;;;;9.00;2.60;;;;;;;27.72;48.74;100599.56;5015339;28;20386;-76
2023/07/20 05:54:25;;;;;;;5.38;2.22;;;;;;;27.61;48.77;100598.06;5016365;28;20543;-77
2023/07/20 05:56:51;;;;;;;10.98;2.58;;;;;;;27.52;48.97;100594.34;5014930;28;20446;-76
2023/07/20 05:59:16;;;;;;;7.83;2.10;;;;;;;27.74;48.91;100605.53;5016733;28;20865;-78
2023/07/20 06:01:43;;;;;;;8.53;2.37;;;;;;;27.90;48.51;100611.69;5018197;28;20403;-77
2023/07/20 06:04:09;;;;;;;7.70;2.28;;;;;;;28.02;48.80;100614.81;5025117;28;20395;-76
2023/07/20 06:06:34;;;;;;;7.90;2.17;;;;;;;28.02;48.81;100617.53;5024086;28;20380;-77
2023/07/20 06:09:03;;;;;;;5.97;1.97;;;;;;;28.13;48.79;100625.59;5023264;28;20388;-79
2023/07/20 06:11:30;;;;;;;9.85;2.70;;;;;;;28.09;48.96;100617.19;5025633;28;20387;-77
2023/07/20 06:13:56;;;;;;;6.07;2.17;;;;;;;28.19;49.02;100627.16;5025421;28;20495;-79
2023/07/20 06:16:22;;;;;;;5.73;2.10;;;;;;;28.38;48.27;100635.41;5023885;28;20470;-77
2023/07/20 06:18:48;;;;;;;6.32;2.03;;;;;;;28.37;48.50;100636.50;5019361;28;20416;-77
2023/07/20 06:21:14;;;;;;;6.38;2.28;;;;;;;28.49;47.86;100645.06;5016628;28;20446;-77
2023/07/20 06:23:40;;;;;;;8.60;4.93;;;;;;;28.55;48.06;100648.56;5015190;28;20408;-76
2023/07/20 06:26:07;;;;;;;6.70;2.40;;;;;;;28.64;48.12;100663.16;5015360;28;20923;-79
2023/07/20 06:28:32;;;;;;;5.60;1.97;;;;;;;28.53;47.84;100657.03;5015045;28;20387;-76
2023/07/20 06:31:02;;;;;;;9.43;4.47;;;;;;;28.52;47.34;100660.84;5014706;28;20388;-77
2023/07/20 06:33:27;;;;;;;4.60;2.15;;;;;;;28.48;47.79;100667.97;5014912;28;20800;-78
2023/07/20 06:35:53;;;;;;;2.97;1.70;;;;;;;28.68;47.20;100671.59;5014333;28;20391;-76
2023/07/20 06:38:19;;;;;;;4.88;1.70;;;;;;;28.80;46.79;100677.44;5014907;28;20412;-77
2023/07/20 06:40:48;;;;;;;4.70;1.40;;;;;;;29.00;46.03;100672.78;5014155;28;20444;-77
2023/07/20 06:43:14;;;;;;;3.08;1.30;;;;;;;29.30;44.73;100675.09;5014625;28;20384;-78
2023/07/20 06:45:39;;;;;;;4.80;1.45;;;;;;;29.33;43.94;100673.69;5015702;28;20454;-76
2023/07/20 06:48:06;;;;;;;3.58;1.80;;;;;;;28.96;44.57;100688.94;5014975;28;20468;-76
2023/07/20 06:50:31;;;;;;;3.08;1.30;;;;;;;28.89;44.55;100702.13;5009791;28;20484;-77
2023/07/20 06:52:58;;;;;;;3.88;1.40;;;;;;;28.82;44.21;100691.59;5016131;28;20490;-78
2023/07/20 06:55:24;;;;;;;3.40;1.55;;;;;;;28.70;44.10;100675.66;5026121;28;20370;-76
2023/07/20 06:57:49;;;;;;;5.03;1.40;;;;;;;28.53;44.08;100678.03;5031746;28;20480;-76
2023/07/20 07:00:15;;;;;;;4.60;1.33;;;;;;;28.52;44.37;100703.66;5026558;28;20879;-78
2023/07/20 07:02:41;;;;;;;3.25;2.00;;;;;;;28.51;44.52;100702.84;5028208;28;20390;-77
2023/07/20 07:05:06;;;;;;;7.22;1.98;;;;;;;28.42;44.59;100702.66;5035703;28;20455;-79
2023/07/20 07:07:32;;;;;;;13.80;8.53;;;;;;;28.31;45.43;100716.72;5034491;28;20378;-78
2023/07/20 07:09:57;;;;;;;5.70;2.20;;;;;;;28.06;45.51;100721.31;5032484;28;20815;-76
2023/07/20 07:12:23;;;;;;;7.88;3.53;;;;;;;27.67;45.91;100716.72;5031823;28;20378;-76
2023/07/20 07:14:49;;;;;;;4.53;1.77;;;;;;;27.46;46.20;100716.88;5024378;28;20399;-76
2023/07/20 07:17:14;;;;;;;4.28;2.72;;;;;;;27.25;46.03;100712.66;5048087;28;20424;-79
2023/07/20 07:19:40;;;;;;;5.10;2.58;;;;;;;27.35;46.31;100718.06;5042749;28;20386;-77
2023/07/20 07:22:06;;;;;;;8.70;5.65;;;;;;;27.22;46.63;100726.81;5055597;28;20381;-78
2023/07/20 07:24:33;;;;;;;3.90;1.83;;;;;;;27.23;46.39;100721.09;5053049;28;20407;-76
2023/07/20 07:27:03;;;;;;;9.60;5.18;;;;;;;26.99;47.03;100723.69;5052656;28;20387;-78
2023/07/20 07:29:29;;;;;;;14.18;9.48;;;;;;;26.95;47.00;100719.06;5053007;28;21149;-77
2023/07/20 07:31:54;;;;;;;4.37;2.80;;;;;;;26.98;47.11;100705.72;5051188;28;20476;-76
2023/07/20 07:34:20;;;;;;;6.47;2.23;;;;;;;26.76;47.56;100697.94;5051447;28;20385;-78
2023/07/20 07:36:46;;;;;;;9.52;2.30;;;;;;;26.76;48.67;100691.69;5050778;28;20769;-77
2023/07/20 07:39:12;;;;;;;8.90;2.28;;;;;;;26.66;49.24;100689.84;5040191;28;20400;-76
2023/07/20 07:41:38;;;;;;;6.22;2.42;;;;;;;26.55;49.91;100674.63;5051956;28;20912;-78
2023/07/20 07:44:04;;;;;;;7.13;2.27;;;;;;;26.37;50.28;100670.63;5039106;28;20393;-79
2023/07/20 07:46:29;;;;;;;6.25;2.10;;;;;;;26.12;51.09;100662.25;5046207;28;20411;-77
2023/07/20 07:48:55;;;;;;;6.57;3.08;;;;;;;26.35;50.74;100670.09;5043781;28;20390;-76
2023/07/20 07:51:20;;;;;;;6.73;2.30;;;;;;;26.32;50.54;100644.25;5031193;28;20397;-76
2023/07/20 07:53:46;;;;;;;5.20;2.33;;;;;;;26.24;50.95;100631.25;5048397;28;20878;-77
2023/07/20 07:56:11;;;;;;;5.63;2.50;;;;;;;26.45;50.49;100623.81;5023557;28;20384;-77
2023/07/20 07:58:37;;;;;;;4.90;2.10;;;;;;;26.34;50.71;100612.19;5027180;28;20837;-77
2023/07/20 08:01:03;;;;;;;7.75;2.25;;;;;;;26.19;51.67;100613.06;5030915;28;20370;-77
2023/07/20 08:03:29;;;;;;;4.85;2.40;;;;;;;26.32;51.00;100600.78;5030557;28;20410;-77
2023/07/20 08:05:59;;;;;;;5.57;2.47;;;;;;;26.52;50.32;100589.00;5027914;28;20436;-78
2023/07/20 08:08:25;;;;;;;6.35;2.50;;;;;;;26.38;50.52;100574.38;5012981;28;20392;-77
2023/07/20 08:10:53;;;;;;;6.13;2.47;;;;;;;26.18;50.27;100559.81;5012642;28;20475;-76
2023/07/20 08:13:19;;;;;;;5.43;2.60;;;;;;;26.39;50.18;100546.13;5012815;28;20383;-76
2023/07/20 08:15:49;;;;;;;6.77;2.40;;;;;;;26.69;49.52;100543.25;5013413;28;20380;-77
2023/07/20 08:18:14;;;;;;;5.23;1.97;;;;;;;26.93;49.15;100549.91;5013297;28;20465;-78
2023/07/20 08:20:43;;;;;;;6.38;2.00;;;;;;;26.86;48.75;100507.50;5015869;28;20380;-76
2023/07/20 08:23:09;;;;;;;8.80;2.30;;;;;;;26.77;49.14;100482.00;5012713;28;20387;-77
2023/07/20 08:25:39;;;;;;;5.17;2.30;;;;;;;26.81;49.63;100477.66;5014225;28;20372;-77
2023/07/20 08:28:04;;;;;;;7.50;2.55;;;;;;;26.98;48.76;100504.41;5013902;28;20443;-78
2023/07/20 08:30:40;;;;;;;8.68;2.67;;;;;;;27.35;48.41;100523.97;5014545;28;20384;-79
2023/07/20 08:33:05;;;;;;;9.68;3.33;;;;;;;27.68;48.65;100513.28;5013472;28;20478;-78
2023/07/20 08:35:31;;;;;;;13.77;3.03;;;;;;;27.85;48.29;100486.38;5012719;28;20852;-77
2023/07/20 08:37:56;;;;;;;5.30;2.40;;;;;;;27.97;47.37;100484.09;5013648;28;20403;-76
2023/07/20 08:40:22;;;;;;;6.80;2.38;;;;;;;28.04;46.21;100494.63;5012351;28;20388;-79
2023/07/20 08:42:48;;;;;;;8.43;2.40;;;;;;;28.09;46.09;100532.72;5013905;28;20454;-77
2023/07/20 08:45:16;;;;;;;5.50;2.20;;;;;;;28.12;46.43;100551.19;5015657;28;20918;-78
2023/07/20 08:47:44;;;;;;;4.00;2.25;;;;;;;28.25;46.47;100557.03;5019800;28;20379;-78
2023/07/20 08:50:11;;;;;;;5.38;2.30;;;;;;;28.33;46.21;100559.94;5018719;28;20388;-78
2023/07/20 08:52:37;;;;;;;8.90;2.80;;;;;;;28.33;46.47;100551.75;5021005;28;20391;-77
2023/07/20 08:55:05;;;;;;;7.37;2.67;;;;;;;28.52;46.49;100549.06;5016422;28;20373;-78
2023/07/20 08:57:34;;;;;;;6.45;2.83;;;;;;;28.50;46.67;100551.22;5012565;28;20540;-77
2023/07/20 09:00:04;;;;;;;5.15;2.88;;;;;;;28.68;46.54;100559.75;5010926;28;20388;-77
2023/07/20 09:02:35;;;;;;;6.18;2.90;;;;;;;28.93;45.99;100553.91;5012518;28;20384;-77
2023/07/20 09:05:01;;;;;;;5.10;3.03;;;;;;;28.89;45.58;100549.34;5014850;28;20420;-76
2023/07/20 09:07:27;;;;;;;8.30;3.20;;;;;;;28.98;45.35;100544.81;5012430;28;20462;-78
2023/07/20 09:09:52;;;;;;;7.67;2.80;;;;;;;29.20;44.38;100543.41;5016150;28;20448;-78
2023/07/20 09:12:18;;;;;;;6.72;2.85;;;;;;;29.40;44.05;100544.97;5018455;28;20418;-78
2023/07/20 09:14:44;;;;;;;6.25;2.92;;;;;;;29.59;44.02;100534.78;5011729;28;20458;-76
2023/07/20 09:17:13;;;;;;;5.95;2.60;;;;;;;29.59;42.95;100531.25;5013449;28;20407;-79
2023/07/20 09:19:45;;;;;;;5.18;2.40;;;;;;;29.62;42.37;100538.81;5012418;28;20466;-76
2023/07/20 09:22:10;;;;;;;5.45;2.78;;;;;;;29.53;42.96;100550.44;5012450;28;20383;-76
2023/07/20 09:24:36;;;;;;;5.67;2.17;;;;;;;29.53;42.23;100539.53;5013490;28;20372;-77
2023/07/20 09:27:03;;;;;;;6.27;2.63;;;;;;;29.74;42.19;100542.69;5013273;28;20406;-77
2023/07/20 09:29:30;;;;;;;7.00;2.40;;;;;;;29.52;42.19;100537.91;5012606;28;20395;-76
2023/07/20 09:32:04;;;;;;;5.68;2.08;;;;;;;29.48;42.43;100541.56;5012450;28;20416;-79
2023/07/20 09:34:33;;;;;;;7.95;2.58;;;;;;;29.84;41.38;100549.91;5010868;28;20391;-77
2023/07/20 09:37:00;;;;;;;4.43;2.40;;;;;;;29.90;40.80;100554.13;5012022;28;20560;-76
2023/07/20 09:39:26;;;;;;;4.85;2.10;;;;;;;29.69;41.38;100547.41;5011807;28;20449;-77
2023/07/20 09:41:52;;;;;;;6.67;2.70;;;;;;;29.60;41.92;100563.69;5012286;28;20471;-77
2023/07/20 09:44:18;;;;;;;5.78;2.35;;;;;;;29.83;41.87;100559.19;5013402;28;20403;-78
2023/07/20 09:46:48;;;;;;;4.28;2.30;;;;;;;29.99;41.74;100562.44;5012636;28;20384;-77
2023/07/20 09:49:13;;;;;;;9.45;2.50;;;;;;;29.72;42.07;100546.81;5012803;28;20384;-76
2023/07/20 09:51:40;;;;;;;7.38;2.63;;;;;;;29.81;41.78;100564.16;5005842;28;20723;-80
2023/07/20 09:54:06;;;;;;;7.95;3.00;;;;;;;30.10;41.79;100547.44;5003880;28;20426;-77
2023/07/20 09:56:33;;;;;;;6.72;3.10;;;;;;;30.26;41.68;100541.66;5000363;28;20446;-77
2023/07/20 09:58:58;;;;;;;9.68;3.58;;;;;;;30.28;41.82;100533.94;5006976;28;20465;-76
2023/07/20 10:01:26;;;;;;;6.43;3.10;;;;;;;30.46;41.77;100540.41;4992565;28;20384;-77
2023/07/20 10:03:54;;;;;;;5.95;2.90;;;;;;;30.27;41.94;100535.03;4997737;28;20888;-76
2023/07/20 10:06:24;;;;;;;9.17;3.40;;;;;;;30.31;41.84;100538.81;5019856;28;20535;-76
2023/07/20 10:09:00;;;;;;;5.75;2.95;;;;;;;29.96;42.55;100549.38;5006098;28;20795;-77
2023/07/20 10:11:30;;;;;;;5.90;3.60;;;;;;;30.04;42.70;100550.59;5002899;28;20398;-79
2023/07/20 10:13:58;;;;;;;5.38;3.20;;;;;;;30.20;41.86;100551.91;5006412;28;20463;-75
2023/07/20 10:16:35;;;;;;;4.78;3.40;;;;;;;30.45;41.79;100541.53;5006311;28;20395;-77
2023/07/20 10:19:19;;;;;;;4.53;3.25;;;;;;;30.67;41.00;100530.63;5012153;28;20412;-78
2023/07/20 10:21:51;;;;;;;5.60;3.30;;;;;;;30.53;41.23;100523.59;5018156;28;20452;-79
2023/07/20 10:24:18;;;;;;;6.18;3.30;;;;;;;30.84;40.83;100523.66;5032383;28;20378;-77
2023/07/20 10:26:43;;;;;;;8.02;3.45;;;;;;;30.97;40.88;100522.00;5047299;28;20747;-76
2023/07/20 10:29:10;;;;;;;6.30;3.33;;;;;;;30.94;40.34;100533.59;5032134;28;20382;-77
2023/07/20 10:31:37;;;;;;;6.68;3.10;;;;;;;30.77;39.26;100523.28;5032673;28;20385;-76
2023/07/20 10:34:04;;;;;;;5.20;3.03;;;;;;;30.78;38.46;100524.91;5034018;28;20397;-82
2023/07/20 10:36:29;;;;;;;6.13;3.15;;;;;;;30.89;38.15;100523.53;5035709;28;20375;-76
2023/07/20 10:38:58;;;;;;;5.45;2.83;;;;;;;30.91;37.82;100515.81;5036123;28;20398;-77
2023/07/20 10:41:40;;;;;;;5.72;2.97;;;;;;;31.11;37.56;100513.72;5035396;28;20469;-78
2023/07/20 10:44:13;;;;;;;4.93;2.92;;;;;;;31.33;37.83;100521.06;5042014;28;20409;-78
2023/07/20 10:46:38;;;;;;;6.47;2.67;;;;;;;31.49;36.29;100514.09;5035855;28;20489;-77
2023/07/20 10:49:08;;;;;;;6.90;2.73;;;;;;;31.59;35.90;100513.00;5033646;28;20465;-78
2023/07/20 10:51:40;;;;;;;5.55;2.72;;;;;;;31.69;35.78;100504.47;5033607;28;20390;-76
2023/07/20 10:54:29;;;;;;;5.80;2.30;;;;;;;31.86;35.49;100502.94;5035049;28;20375;-76
2023/07/20 10:57:18;;;;;;;5.47;2.60;;;;;;;31.85;35.12;100504.84;5034173;28;20422;-78
2023/07/20 10:59:47;;;;;;;5.00;2.70;;;;;;;31.96;35.59;100508.09;5037119;28;20466;-77
2023/07/20 11:02:12;;;;;;;5.30;3.00;;;;;;;32.13;35.74;100502.69;5037811;28;20442;-76
2023/07/20 11:04:48;;;;;;;8.80;2.65;;;;;;;32.26;35.54;100500.13;5034797;28;20389;-81
2023/07/20 11:07:36;;;;;;;4.90;2.60;;;;;;;32.33;35.00;100484.78;5033902;28;20778;-76
2023/07/20 11:10:15;;;;;;;7.35;2.85;;;;;;;32.36;35.07;100500.59;5032779;28;20382;-76
2023/07/20 11:12:41;;;;;;;7.38;2.92;;;;;;;32.30;35.33;100487.38;5033999;28;20367;-79
2023/07/20 11:15:07;;;;;;;7.18;2.85;;;;;;;32.14;35.67;100504.31;5033759;28;20719;-76
2023/07/20 11:17:33;;;;;;;3.92;2.60;;;;;;;32.27;35.93;100498.97;5034386;28;20447;-79
2023/07/20 11:20:02;;;;;;;8.13;3.50;;;;;;;32.39;36.37;100497.22;5034313;28;20425;-77
2023/07/20 11:22:31;;;;;;;5.88;2.85;;;;;;;32.27;36.12;100493.47;5034113;28;20382;-77
2023/07/20 11:24:56;;;;;;;5.43;3.30;;;;;;;32.41;36.33;100487.84;5034898;28;20735;-77